sensor_id;sensor_type;location;lat;lon;timestamp;pressure;altitude;pressure_sealevel;temperature
24714;BMP280;12820;51.580;5.010;2023-05-10T00:02:34;100842.63;;;16.04
24714;BMP280;12820;51.580;5.010;2023-05-10T00:07:37;100839.34;;;16.02
24714;BMP280;12820;51.580;5.010;2023-05-10T00:12:39;100844.50;;;16.00
24714;BMP280;12820;51.580;5.010;2023-05-10T00:17:41;100841.13;;;15.99
24714;BMP280;12820;51.580;5.010;2023-05-10T00:22:43;100842.84;;;15.99
24714;BMP280;12820;51.580;5.010;2023-05-10T00:27:45;100841.22;;;15.98
24714;BMP280;12820;51.580;5.010;2023-05-10T00:32:47;100841.28;;;15.95
24714;BMP280;12820;51.580;5.010;2023-05-10T00:37:52;100843.91;;;15.92
24714;BMP280;12820;51.580;5.010;2023-05-10T00:42:55;100844.06;;;15.87
24714;BMP280;12820;51.580;5.010;2023-05-10T00:47:58;100840.75;;;15.85
24714;BMP280;12820;51.580;5.010;2023-05-10T00:53:02;100827.38;;;15.82
24714;BMP280;12820;51.580;5.010;2023-05-10T00:58:04;100829.91;;;15.82
24714;BMP280;12820;51.580;5.010;2023-05-10T01:03:06;100827.41;;;15.81
24714;BMP280;12820;51.580;5.010;2023-05-10T01:08:09;100829.13;;;15.80
24714;BMP280;12820;51.580;5.010;2023-05-10T01:13:12;100832.56;;;15.79
24714;BMP280;12820;51.580;5.010;2023-05-10T01:18:15;100826.59;;;15.80
24714;BMP280;12820;51.580;5.010;2023-05-10T01:23:34;100837.56;;;15.81
24714;BMP280;12820;51.580;5.010;2023-05-10T01:34:25;100840.25;;;15.76
24714;BMP280;12820;51.580;5.010;2023-05-10T01:39:45;100847.03;;;15.76
24714;BMP280;12820;51.580;5.010;2023-05-10T01:45:02;100849.56;;;15.76
24714;BMP280;12820;51.580;5.010;2023-05-10T01:50:12;100851.25;;;15.75
24714;BMP280;12820;51.580;5.010;2023-05-10T01:55:20;100850.38;;;15.76
24714;BMP280;12820;51.580;5.010;2023-05-10T02:00:24;100846.97;;;15.77
24714;BMP280;12820;51.580;5.010;2023-05-10T02:05:28;100853.63;;;15.80
24714;BMP280;12820;51.580;5.010;2023-05-10T02:10:34;100854.47;;;15.80
24714;BMP280;12820;51.580;5.010;2023-05-10T02:15:37;100847.66;;;15.82
24714;BMP280;12820;51.580;5.010;2023-05-10T02:20:41;100851.78;;;15.84
24714;BMP280;12820;51.580;5.010;2023-05-10T02:25:45;100866.06;;;15.87
24714;BMP280;12820;51.580;5.010;2023-05-10T02:30:49;100861.81;;;15.87
24714;BMP280;12820;51.580;5.010;2023-05-10T02:35:54;100872.72;;;15.89
24714;BMP280;12820;51.580;5.010;2023-05-10T02:40:57;100871.00;;;15.90
24714;BMP280;12820;51.580;5.010;2023-05-10T02:46:01;100876.88;;;15.92
24714;BMP280;12820;51.580;5.010;2023-05-10T02:51:05;100884.47;;;15.92
24714;BMP280;12820;51.580;5.010;2023-05-10T02:56:15;100883.59;;;15.93
24714;BMP280;12820;51.580;5.010;2023-05-10T03:01:19;100886.91;;;15.95
24714;BMP280;12820;51.580;5.010;2023-05-10T03:06:22;100889.50;;;15.93
24714;BMP280;12820;51.580;5.010;2023-05-10T03:16:55;100886.91;;;15.95
24714;BMP280;12820;51.580;5.010;2023-05-10T03:22:04;100887.75;;;15.94
24714;BMP280;12820;51.580;5.010;2023-05-10T03:27:11;100889.50;;;15.93
24714;BMP280;12820;51.580;5.010;2023-05-10T03:32:15;100899.63;;;15.93
24714;BMP280;12820;51.580;5.010;2023-05-10T03:37:17;100907.28;;;15.92
24714;BMP280;12820;51.580;5.010;2023-05-10T03:42:20;100902.34;;;15.89
24714;BMP280;12820;51.580;5.010;2023-05-10T03:47:23;100905.75;;;15.88
24714;BMP280;12820;51.580;5.010;2023-05-10T03:52:25;100910.88;;;15.85
24714;BMP280;12820;51.580;5.010;2023-05-10T03:57:28;100911.00;;;15.82
24714;BMP280;12820;51.580;5.010;2023-05-10T04:02:30;100920.44;;;15.79
24714;BMP280;12820;51.580;5.010;2023-05-10T04:07:32;100920.47;;;15.77
24714;BMP280;12820;51.580;5.010;2023-05-10T04:12:35;100923.13;;;15.74
24714;BMP280;12820;51.580;5.010;2023-05-10T04:17:37;100925.72;;;15.71
24714;BMP280;12820;51.580;5.010;2023-05-10T04:22:39;100920.75;;;15.70
24714;BMP280;12820;51.580;5.010;2023-05-10T04:27:41;100917.41;;;15.68
24714;BMP280;12820;51.580;5.010;2023-05-10T04:32:43;100925.00;;;15.68
24714;BMP280;12820;51.580;5.010;2023-05-10T04:37:46;100923.41;;;15.65
24714;BMP280;12820;51.580;5.010;2023-05-10T04:42:48;100922.59;;;15.65
24714;BMP280;12820;51.580;5.010;2023-05-10T04:47:50;100922.59;;;15.65
24714;BMP280;12820;51.580;5.010;2023-05-10T04:52:53;100923.41;;;15.65
24714;BMP280;12820;51.580;5.010;2023-05-10T04:57:55;100930.13;;;15.66
24714;BMP280;12820;51.580;5.010;2023-05-10T05:02:59;100934.28;;;15.69
24714;BMP280;12820;51.580;5.010;2023-05-10T05:08:01;100935.78;;;15.74
24714;BMP280;12820;51.580;5.010;2023-05-10T05:13:03;100934.81;;;15.78
24714;BMP280;12820;51.580;5.010;2023-05-10T05:18:06;100947.13;;;15.88
24714;BMP280;12820;51.580;5.010;2023-05-10T05:23:08;100945.22;;;15.95
24714;BMP280;12820;51.580;5.010;2023-05-10T05:28:10;100955.81;;;16.07
24714;BMP280;12820;51.580;5.010;2023-05-10T05:33:15;100962.38;;;16.12
24714;BMP280;12820;51.580;5.010;2023-05-10T05:38:17;100964.78;;;16.15
24714;BMP280;12820;51.580;5.010;2023-05-10T05:43:19;100966.25;;;16.22
24714;BMP280;12820;51.580;5.010;2023-05-10T05:48:22;100968.34;;;16.34
24714;BMP280;12820;51.580;5.010;2023-05-10T05:53:24;100971.94;;;16.51
24714;BMP280;12820;51.580;5.010;2023-05-10T05:58:26;100978.09;;;16.68
24714;BMP280;12820;51.580;5.010;2023-05-10T06:03:29;100975.53;;;16.90
24714;BMP280;12820;51.580;5.010;2023-05-10T06:08:32;100978.06;;;17.12
24714;BMP280;12820;51.580;5.010;2023-05-10T06:13:35;100974.66;;;17.34
24714;BMP280;12820;51.580;5.010;2023-05-10T06:18:37;100991.13;;;17.45
24714;BMP280;12820;51.580;5.010;2023-05-10T06:23:40;100990.91;;;17.51
24714;BMP280;12820;51.580;5.010;2023-05-10T06:28:42;100990.91;;;17.51
24714;BMP280;12820;51.580;5.010;2023-05-10T06:33:44;100998.69;;;17.47
24714;BMP280;12820;51.580;5.010;2023-05-10T06:38:46;101011.59;;;17.42
24714;BMP280;12820;51.580;5.010;2023-05-10T06:43:49;101013.25;;;17.43
24714;BMP280;12820;51.580;5.010;2023-05-10T06:48:54;101011.31;;;17.50
24714;BMP280;12820;51.580;5.010;2023-05-10T06:53:56;101001.53;;;17.60
24714;BMP280;12820;51.580;5.010;2023-05-10T06:58:58;101004.72;;;17.65
24714;BMP280;12820;51.580;5.010;2023-05-10T07:04:00;101014.66;;;17.71
24714;BMP280;12820;51.580;5.010;2023-05-10T07:09:04;101025.13;;;17.85
24714;BMP280;12820;51.580;5.010;2023-05-10T07:14:06;101031.22;;;18.02
24714;BMP280;12820;51.580;5.010;2023-05-10T07:19:08;101025.09;;;18.25
24714;BMP280;12820;51.580;5.010;2023-05-10T07:24:11;101036.03;;;18.47
24714;BMP280;12820;51.580;5.010;2023-05-10T07:29:13;101035.53;;;18.58
24714;BMP280;12820;51.580;5.010;2023-05-10T07:34:15;101040.31;;;18.84
24714;BMP280;12820;51.580;5.010;2023-05-10T07:39:17;101034.50;;;19.00
24714;BMP280;12820;51.580;5.010;2023-05-10T07:44:28;101033.75;;;19.16
24714;BMP280;12820;51.580;5.010;2023-05-10T07:49:30;101038.44;;;19.24
24714;BMP280;12820;51.580;5.010;2023-05-10T07:54:32;101035.41;;;19.35
24714;BMP280;12820;51.580;5.010;2023-05-10T07:59:35;101041.41;;;19.50
24714;BMP280;12820;51.580;5.010;2023-05-10T08:04:38;101039.03;;;19.65
24714;BMP280;12820;51.580;5.010;2023-05-10T08:09:40;101034.56;;;19.87
24714;BMP280;12820;51.580;5.010;2023-05-10T08:14:42;101048.97;;;20.04
24714;BMP280;12820;51.580;5.010;2023-05-10T08:19:45;101054.28;;;20.34
24714;BMP280;12820;51.580;5.010;2023-05-10T08:24:47;101060.13;;;20.53
24714;BMP280;12820;51.580;5.010;2023-05-10T08:29:50;101060.94;;;20.53
24714;BMP280;12820;51.580;5.010;2023-05-10T08:34:53;101060.19;;;20.83
24714;BMP280;12820;51.580;5.010;2023-05-10T08:39:55;101055.34;;;21.10
24714;BMP280;12820;51.580;5.010;2023-05-10T08:44:59;101058.97;;;21.21
24714;BMP280;12820;51.580;5.010;2023-05-10T08:50:02;101057.91;;;21.40
24714;BMP280;12820;51.580;5.010;2023-05-10T08:55:04;101072.66;;;21.51
24714;BMP280;12820;51.580;5.010;2023-05-10T09:00:07;101072.03;;;21.47
24714;BMP280;12820;51.580;5.010;2023-05-10T09:05:10;101078.53;;;21.53
24714;BMP280;12820;51.580;5.010;2023-05-10T09:10:13;101077.03;;;21.64
24714;BMP280;12820;51.580;5.010;2023-05-10T09:15:15;101082.59;;;21.56
24714;BMP280;12820;51.580;5.010;2023-05-10T09:20:18;101093.63;;;21.57
24714;BMP280;12820;51.580;5.010;2023-05-10T09:25:21;101089.44;;;21.56
24714;BMP280;12820;51.580;5.010;2023-05-10T09:30:26;101097.34;;;21.67
24714;BMP280;12820;51.580;5.010;2023-05-10T09:35:30;101093.81;;;21.84
24714;BMP280;12820;51.580;5.010;2023-05-10T09:40:33;101095.22;;;22.18
24714;BMP280;12820;51.580;5.010;2023-05-10T09:45:35;101107.19;;;22.33
24714;BMP280;12820;51.580;5.010;2023-05-10T09:50:40;101109.56;;;22.36
24714;BMP280;12820;51.580;5.010;2023-05-10T09:55:45;101112.19;;;22.63
24714;BMP280;12820;51.580;5.010;2023-05-10T10:00:48;101106.56;;;23.13
24714;BMP280;12820;51.580;5.010;2023-05-10T10:05:53;101106.94;;;23.34
24714;BMP280;12820;51.580;5.010;2023-05-10T10:10:57;101106.94;;;23.34
24714;BMP280;12820;51.580;5.010;2023-05-10T10:16:00;101106.50;;;23.28
24714;BMP280;12820;51.580;5.010;2023-05-10T10:21:02;101118.28;;;23.16
24714;BMP280;12820;51.580;5.010;2023-05-10T10:26:05;101118.50;;;23.00
24714;BMP280;12820;51.580;5.010;2023-05-10T10:31:22;101123.06;;;23.09
24714;BMP280;12820;51.580;5.010;2023-05-10T10:36:26;101114.06;;;23.56
24714;BMP280;12820;51.580;5.010;2023-05-10T10:46:34;101099.53;;;26.69
24714;BMP280;12820;51.580;5.010;2023-05-10T10:51:37;101105.56;;;26.13
24714;BMP280;12820;51.580;5.010;2023-05-10T10:56:39;101105.53;;;26.36
24714;BMP280;12820;51.580;5.010;2023-05-10T11:01:41;101093.19;;;26.51
24714;BMP280;12820;51.580;5.010;2023-05-10T11:06:46;101096.25;;;26.56
24714;BMP280;12820;51.580;5.010;2023-05-10T11:11:51;101105.63;;;26.68
24714;BMP280;12820;51.580;5.010;2023-05-10T11:16:54;101098.84;;;26.77
24714;BMP280;12820;51.580;5.010;2023-05-10T11:27:05;101101.91;;;26.93
24714;BMP280;12820;51.580;5.010;2023-05-10T11:32:07;101101.94;;;27.04
24714;BMP280;12820;51.580;5.010;2023-05-10T11:37:10;101102.66;;;27.06
24714;BMP280;12820;51.580;5.010;2023-05-10T11:42:12;101097.91;;;26.78
24714;BMP280;12820;51.580;5.010;2023-05-10T11:47:14;101113.19;;;26.48
24714;BMP280;12820;51.580;5.010;2023-05-10T11:52:18;101107.81;;;26.28
24714;BMP280;12820;51.580;5.010;2023-05-10T11:57:26;101107.34;;;26.23
24714;BMP280;12820;51.580;5.010;2023-05-10T12:02:28;101116.47;;;26.16
24714;BMP280;12820;51.580;5.010;2023-05-10T12:07:31;101116.16;;;25.98
24714;BMP280;12820;51.580;5.010;2023-05-10T12:12:41;101127.31;;;25.86
24714;BMP280;12820;51.580;5.010;2023-05-10T12:17:44;101115.16;;;25.88
24714;BMP280;12820;51.580;5.010;2023-05-10T12:22:51;101127.63;;;26.04
24714;BMP280;12820;51.580;5.010;2023-05-10T12:27:55;101126.53;;;26.19
24714;BMP280;12820;51.580;5.010;2023-05-10T12:33:02;101126.47;;;26.31
24714;BMP280;12820;51.580;5.010;2023-05-10T12:43:32;101133.25;;;25.99
24714;BMP280;12820;51.580;5.010;2023-05-10T12:48:35;101141.59;;;25.55
24714;BMP280;12820;51.580;5.010;2023-05-10T12:53:38;101150.28;;;25.30
24714;BMP280;12820;51.580;5.010;2023-05-10T12:58:45;101156.94;;;25.20
24714;BMP280;12820;51.580;5.010;2023-05-10T13:03:50;101159.31;;;25.11
24714;BMP280;12820;51.580;5.010;2023-05-10T13:08:53;101155.00;;;25.11
24714;BMP280;12820;51.580;5.010;2023-05-10T13:13:55;101161.00;;;25.24
24714;BMP280;12820;51.580;5.010;2023-05-10T13:18:57;101161.91;;;25.47
24714;BMP280;12820;51.580;5.010;2023-05-10T13:24:00;101154.88;;;25.61
24714;BMP280;12820;51.580;5.010;2023-05-10T13:29:03;101158.47;;;25.59
24714;BMP280;12820;51.580;5.010;2023-05-10T13:34:05;101169.81;;;25.44
24714;BMP280;12820;51.580;5.010;2023-05-10T13:39:07;101178.47;;;25.19
24714;BMP280;12820;51.580;5.010;2023-05-10T13:44:12;101172.91;;;24.88
24714;BMP280;12820;51.580;5.010;2023-05-10T13:49:14;101172.44;;;24.58
24714;BMP280;12820;51.580;5.010;2023-05-10T13:54:16;101169.97;;;24.30
24714;BMP280;12820;51.580;5.010;2023-05-10T13:59:21;101184.38;;;24.07
24714;BMP280;12820;51.580;5.010;2023-05-10T14:04:23;101183.50;;;23.81
24714;BMP280;12820;51.580;5.010;2023-05-10T14:09:25;101186.91;;;23.54
24714;BMP280;12820;51.580;5.010;2023-05-10T14:14:27;101186.94;;;23.27
24714;BMP280;12820;51.580;5.010;2023-05-10T14:19:32;101180.94;;;22.99
24714;BMP280;12820;51.580;5.010;2023-05-10T14:24:35;101184.16;;;22.74
24714;BMP280;12820;51.580;5.010;2023-05-10T14:29:38;101180.03;;;22.58
24714;BMP280;12820;51.580;5.010;2023-05-10T14:34:40;101178.72;;;22.36
24714;BMP280;12820;51.580;5.010;2023-05-10T14:39:42;101188.91;;;22.22
24714;BMP280;12820;51.580;5.010;2023-05-10T14:44:44;101192.69;;;22.15
24714;BMP280;12820;51.580;5.010;2023-05-10T14:49:46;101184.94;;;22.17
24714;BMP280;12820;51.580;5.010;2023-05-10T14:54:49;101195.09;;;22.18
24714;BMP280;12820;51.580;5.010;2023-05-10T14:59:52;101172.69;;;22.22
24714;BMP280;12820;51.580;5.010;2023-05-10T15:04:55;101177.66;;;22.25
24714;BMP280;12820;51.580;5.010;2023-05-10T15:09:57;101187.25;;;22.06
24714;BMP280;12820;51.580;5.010;2023-05-10T15:15:00;101191.34;;;21.78
24714;BMP280;12820;51.580;5.010;2023-05-10T15:20:02;101199.81;;;21.49
24714;BMP280;12820;51.580;5.010;2023-05-10T15:25:05;101204.78;;;21.20
24714;BMP280;12820;51.580;5.010;2023-05-10T15:30:10;101203.56;;;20.94
24714;BMP280;12820;51.580;5.010;2023-05-10T15:35:12;101203.88;;;20.71
24714;BMP280;12820;51.580;5.010;2023-05-10T15:40:15;101213.34;;;20.53
24714;BMP280;12820;51.580;5.010;2023-05-10T15:45:17;101223.69;;;20.33
24714;BMP280;12820;51.580;5.010;2023-05-10T15:50:20;101232.84;;;20.19
24714;BMP280;12820;51.580;5.010;2023-05-10T15:55:23;101242.94;;;20.04
24714;BMP280;12820;51.580;5.010;2023-05-10T16:00:25;101252.03;;;19.92
24714;BMP280;12820;51.580;5.010;2023-05-10T16:05:27;101253.47;;;19.79
24714;BMP280;12820;51.580;5.010;2023-05-10T16:10:33;101262.72;;;19.63
24714;BMP280;12820;51.580;5.010;2023-05-10T16:15:35;101256.06;;;19.59
24714;BMP280;12820;51.580;5.010;2023-05-10T16:20:37;101247.56;;;19.59
24714;BMP280;12820;51.580;5.010;2023-05-10T16:25:40;101249.25;;;19.60
24714;BMP280;12820;51.580;5.010;2023-05-10T16:30:42;101249.25;;;19.60
24714;BMP280;12820;51.580;5.010;2023-05-10T16:35:45;101252.75;;;19.58
24714;BMP280;12820;51.580;5.010;2023-05-10T16:40:47;101255.44;;;19.55
24714;BMP280;12820;51.580;5.010;2023-05-10T16:45:50;101253.84;;;19.52
24714;BMP280;12820;51.580;5.010;2023-05-10T16:50:52;101247.03;;;19.53
24714;BMP280;12820;51.580;5.010;2023-05-10T16:55:54;101249.97;;;19.63
24714;BMP280;12820;51.580;5.010;2023-05-10T17:00:57;101249.88;;;19.83
24714;BMP280;12820;51.580;5.010;2023-05-10T17:05:59;101257.88;;;19.93
24714;BMP280;12820;51.580;5.010;2023-05-10T17:11:01;101272.66;;;20.05
24714;BMP280;12820;51.580;5.010;2023-05-10T17:16:04;101274.56;;;20.18
24714;BMP280;12820;51.580;5.010;2023-05-10T17:21:07;101281.59;;;20.31
24714;BMP280;12820;51.580;5.010;2023-05-10T17:26:10;101290.81;;;20.35
24714;BMP280;12820;51.580;5.010;2023-05-10T17:31:12;101288.44;;;20.31
24714;BMP280;12820;51.580;5.010;2023-05-10T17:36:15;101287.97;;;20.23
24714;BMP280;12820;51.580;5.010;2023-05-10T17:41:17;101291.47;;;20.21
24714;BMP280;12820;51.580;5.010;2023-05-10T17:46:19;101297.97;;;20.28
24714;BMP280;12820;51.580;5.010;2023-05-10T17:51:21;101292.63;;;20.33
24714;BMP280;12820;51.580;5.010;2023-05-10T17:56:24;101287.75;;;20.28
24714;BMP280;12820;51.580;5.010;2023-05-10T18:01:26;101293.13;;;20.22
24714;BMP280;12820;51.580;5.010;2023-05-10T18:06:28;101295.94;;;20.16
24714;BMP280;12820;51.580;5.010;2023-05-10T18:11:30;101295.69;;;20.04
24714;BMP280;12820;51.580;5.010;2023-05-10T18:16:33;101304.59;;;19.95
24714;BMP280;12820;51.580;5.010;2023-05-10T18:21:35;101297.41;;;19.85
24714;BMP280;12820;51.580;5.010;2023-05-10T18:26:39;101300.56;;;19.72
24714;BMP280;12820;51.580;5.010;2023-05-10T18:31:41;101305.28;;;19.61
24714;BMP280;12820;51.580;5.010;2023-05-10T18:36:44;101319.53;;;19.46
24714;BMP280;12820;51.580;5.010;2023-05-10T18:41:49;101329.69;;;19.28
24714;BMP280;12820;51.580;5.010;2023-05-10T18:46:51;101328.63;;;19.12
24714;BMP280;12820;51.580;5.010;2023-05-10T18:51:55;101325.75;;;19.00
24714;BMP280;12820;51.580;5.010;2023-05-10T18:56:57;101324.59;;;18.87
24714;BMP280;12820;51.580;5.010;2023-05-10T19:01:59;101331.88;;;18.75
24714;BMP280;12820;51.580;5.010;2023-05-10T19:07:02;101325.50;;;18.64
24714;BMP280;12820;51.580;5.010;2023-05-10T19:12:04;101326.88;;;18.51
24714;BMP280;12820;51.580;5.010;2023-05-10T19:17:07;101334.16;;;18.39
24714;BMP280;12820;51.580;5.010;2023-05-10T19:22:12;101340.38;;;18.31
24714;BMP280;12820;51.580;5.010;2023-05-10T19:27:14;101344.06;;;18.24
24714;BMP280;12820;51.580;5.010;2023-05-10T19:32:18;101351.16;;;18.16
24714;BMP280;12820;51.580;5.010;2023-05-10T19:37:21;101349.72;;;18.10
24714;BMP280;12820;51.580;5.010;2023-05-10T19:42:24;101357.59;;;18.02
24714;BMP280;12820;51.580;5.010;2023-05-10T19:47:26;101355.22;;;17.98
24714;BMP280;12820;51.580;5.010;2023-05-10T19:52:28;101362.13;;;17.95
24714;BMP280;12820;51.580;5.010;2023-05-10T19:57:31;101369.06;;;17.91
24714;BMP280;12820;51.580;5.010;2023-05-10T20:02:36;101376.00;;;17.86
24714;BMP280;12820;51.580;5.010;2023-05-10T20:07:38;101367.69;;;17.81
24714;BMP280;12820;51.580;5.010;2023-05-10T20:12:45;101368.75;;;17.75
24714;BMP280;12820;51.580;5.010;2023-05-10T20:17:56;101372.25;;;17.72
24714;BMP280;12820;51.580;5.010;2023-05-10T20:23:00;101381.78;;;17.66
24714;BMP280;12820;51.580;5.010;2023-05-10T20:28:03;101379.41;;;17.61
24714;BMP280;12820;51.580;5.010;2023-05-10T20:33:06;101383.84;;;17.55
24714;BMP280;12820;51.580;5.010;2023-05-10T20:38:09;101380.63;;;17.50
24714;BMP280;12820;51.580;5.010;2023-05-10T20:43:11;101374.00;;;17.46
24714;BMP280;12820;51.580;5.010;2023-05-10T20:48:14;101377.53;;;17.42
24714;BMP280;12820;51.580;5.010;2023-05-10T20:53:16;101382.72;;;17.40
24714;BMP280;12820;51.580;5.010;2023-05-10T20:58:19;101386.25;;;17.36
24714;BMP280;12820;51.580;5.010;2023-05-10T21:03:22;101392.28;;;17.32
24714;BMP280;12820;51.580;5.010;2023-05-10T21:08:24;101389.03;;;17.28
24714;BMP280;12820;51.580;5.010;2023-05-10T21:13:26;101392.56;;;17.23
24714;BMP280;12820;51.580;5.010;2023-05-10T21:18:28;101392.72;;;17.19
24714;BMP280;12820;51.580;5.010;2023-05-10T21:23:31;101393.66;;;17.16
24714;BMP280;12820;51.580;5.010;2023-05-10T21:28:35;101393.66;;;17.16
24714;BMP280;12820;51.580;5.010;2023-05-10T21:33:41;101393.75;;;17.13
24714;BMP280;12820;51.580;5.010;2023-05-10T21:38:43;101387.84;;;17.13
24714;BMP280;12820;51.580;5.010;2023-05-10T21:43:45;101393.81;;;17.12
24714;BMP280;12820;51.580;5.010;2023-05-10T21:48:48;101391.34;;;17.09
24714;BMP280;12820;51.580;5.010;2023-05-10T21:53:50;101388.91;;;17.06
24714;BMP280;12820;51.580;5.010;2023-05-10T21:58:52;101389.84;;;17.04
24714;BMP280;12820;51.580;5.010;2023-05-10T22:03:54;101388.28;;;17.00
24714;BMP280;12820;51.580;5.010;2023-05-10T22:08:59;101379.97;;;16.95
24714;BMP280;12820;51.580;5.010;2023-05-10T22:14:01;101383.47;;;16.91
24714;BMP280;12820;51.580;5.010;2023-05-10T22:19:03;101387.72;;;16.89
24714;BMP280;12820;51.580;5.010;2023-05-10T22:24:06;101387.84;;;16.86
24714;BMP280;12820;51.580;5.010;2023-05-10T22:29:08;101384.56;;;16.83
24714;BMP280;12820;51.580;5.010;2023-05-10T22:34:10;101386.34;;;16.79
24714;BMP280;12820;51.580;5.010;2023-05-10T22:39:12;101383.91;;;16.76
24714;BMP280;12820;51.580;5.010;2023-05-10T22:44:15;101385.63;;;16.76
24714;BMP280;12820;51.580;5.010;2023-05-10T22:49:17;101380.56;;;16.74
24714;BMP280;12820;51.580;5.010;2023-05-10T22:54:19;101386.56;;;16.73
24714;BMP280;12820;51.580;5.010;2023-05-10T22:59:21;101388.28;;;16.71
24714;BMP280;12820;51.580;5.010;2023-05-10T23:04:23;101394.25;;;16.71
24714;BMP280;12820;51.580;5.010;2023-05-10T23:09:25;101395.19;;;16.68
24714;BMP280;12820;51.580;5.010;2023-05-10T23:14:28;101406.19;;;16.67
24714;BMP280;12820;51.580;5.010;2023-05-10T23:19:30;101399.53;;;16.65
24714;BMP280;12820;51.580;5.010;2023-05-10T23:24:32;101402.09;;;16.63
24714;BMP280;12820;51.580;5.010;2023-05-10T23:29:34;101412.25;;;16.63
24714;BMP280;12820;51.580;5.010;2023-05-10T23:34:36;101404.66;;;16.62
24714;BMP280;12820;51.580;5.010;2023-05-10T23:39:38;101413.16;;;16.61
24714;BMP280;12820;51.580;5.010;2023-05-10T23:44:41;101412.38;;;16.59
24714;BMP280;12820;51.580;5.010;2023-05-10T23:49:43;101424.28;;;16.57
24714;BMP280;12820;51.580;5.010;2023-05-10T23:54:45;101420.97;;;16.55
24714;BMP280;12820;51.580;5.010;2023-05-10T23:59:48;101416.84;;;16.51
